Weather at De Winton South Calgary Airport

Public forecast

Using degrees Celsius for public forecast. Weather courtesy of forecast.io.

Closest aviation weather report (METAR) to De Winton South Calgary Airport

Closest report is Calgary International Airport, 19.2 nm (35.5 km) NNW.

2024/05/22 21:15 (retrieved 51 minutes ago)

CYYC 222115Z 08003KT 060V140 9SM BKN034TCU BKN072 08/04 A2990 RMK TCU5AC2 DIST SH SE-W SLP151

Closest aviation forecast (TAF) to De Winton South Calgary Airport

Closest forecast is Calgary International Airport, 19.2 nm (35.5 km) NNW.

2024/05/22 21:42 (retrieved 24 minutes ago)

TAF CYYC 222040Z 2221/2318 10010KT P6SM -SHRA SCT020 BKN025 TEMPO 2221/2223 6SM -SHRA BR BKN020 OVC025 FM222300 07010G20KT P6SM VCSH SCT025 BKN030 TEMPO 2223/2302 P6SM -SHRA BKN025 FM230200 05012KT P6SM FEW012 BKN025 TEMPO 2302/2307 5SM -SHRA BR BKN012 OVC020 BECMG 2303/2305 36008KT FM230700 33006KT P6SM FEW006 OVC012 TEMPO 2307/2313 3SM -RA BR OVC006 FM231300 35008KT 6SM -RA BR SCT004 OVC008 TEMPO 2313/2316 2SM -RA BR OVC004 FM231600 33006KT P6SM -SHRA OVC010 TEMPO 2317/2318 P6SM NSW SCT010 OVC020 RMK NXT FCST BY 230000Z